Time;durP1;ratioP1;P1;durP2;ratioP2;P2;SDS_P1;SDS_P2;PMS_P1;PMS_P2;Temp;Humidity;BMP_temperature;BMP_pressure;BME280_temperature;BME280_humidity;BME280_pressure;Samples;Min_cycle;Max_cycle;Signal;HPM_P1;HPM_P2
2022/05/29 00:01:21;;;;;;;12.35;4.38;;;;;;;;;;5068110;28;20053;-82
2022/05/29 00:03:49;;;;;;;13.55;4.50;;;;;;;;;;5065688;28;20781;-82
2022/05/29 00:06:15;;;;;;;13.55;4.38;;;;;;;;;;5050420;28;20045;-82
2022/05/29 00:08:43;;;;;;;14.93;4.63;;;;;;;;;;5069399;28;20045;-82
2022/05/29 00:11:10;;;;;;;15.38;4.53;;;;;;;;;;5058074;28;20041;-82
2022/05/29 00:13:36;;;;;;;14.63;4.03;;;;;;;;;;5059713;28;20460;-82
2022/05/29 00:16:03;;;;;;;11.77;3.95;;;;;;;;;;5050377;28;20406;-82
2022/05/29 00:18:29;;;;;;;10.65;4.03;;;;;;;;;;5053016;28;20052;-82
2022/05/29 00:20:57;;;;;;;9.57;4.03;;;;;;;;;;5053654;28;20096;-82
2022/05/29 00:23:23;;;;;;;12.23;4.70;;;;;;;;;;5072720;28;20056;-82
2022/05/29 00:25:51;;;;;;;10.73;4.10;;;;;;;;;;5052367;28;20453;-82
2022/05/29 00:28:17;;;;;;;10.93;4.13;;;;;;;;;;5051015;28;20387;-82
2022/05/29 00:30:43;;;;;;;13.13;4.72;;;;;;;;;;5051361;28;20067;-82
2022/05/29 00:33:09;;;;;;;13.20;4.22;;;;;;;;;;5034369;28;20048;-82
2022/05/29 00:35:37;;;;;;;13.57;4.57;;;;;;;;;;5048915;28;20044;-82
2022/05/29 00:38:04;;;;;;;11.90;4.15;;;;;;;;;;5050877;28;20045;-82
2022/05/29 00:40:33;;;;;;;13.18;4.25;;;;;;;;;;5034141;28;20099;-82
2022/05/29 00:42:59;;;;;;;14.27;4.15;;;;;;;;;;5051634;28;20102;-82
2022/05/29 00:45:26;;;;;;;12.13;4.68;;;;;;;;;;5049374;28;20051;-82
2022/05/29 00:47:52;;;;;;;13.77;5.45;;;;;;;;;;5052017;28;20123;-82
2022/05/29 00:50:22;;;;;;;11.77;4.32;;;;;;;;;;5050918;28;20076;-82
2022/05/29 00:52:48;;;;;;;13.45;4.60;;;;;;;;;;5071141;28;20242;-81
2022/05/29 00:55:18;;;;;;;15.57;5.07;;;;;;;;;;5057188;28;20045;-82
2022/05/29 00:57:46;;;;;;;12.98;4.47;;;;;;;;;;5050946;28;20088;-82
2022/05/29 01:00:25;;;;;;;17.83;5.30;;;;;;;;;;5051826;28;20045;-81
2022/05/29 01:02:52;;;;;;;14.75;4.60;;;;;;;;;;5051915;28;20045;-82
2022/05/29 01:05:19;;;;;;;13.75;4.60;;;;;;;;;;5047752;28;20036;-82
2022/05/29 01:07:51;;;;;;;11.40;4.57;;;;;;;;;;5047119;28;20440;-82
2022/05/29 01:10:18;;;;;;;11.32;3.88;;;;;;;;;;5048430;28;20108;-81
2022/05/29 01:12:56;;;;;;;11.15;3.63;;;;;;;;;;5050865;28;20049;-82
2022/05/29 01:15:25;;;;;;;9.52;3.95;;;;;;;;;;5048360;28;20049;-82
2022/05/29 01:18:10;;;;;;;10.45;3.83;;;;;;;;;;5050120;28;20202;-82
2022/05/29 01:20:39;;;;;;;13.95;3.92;;;;;;;;;;5057451;28;20044;-82
2022/05/29 01:23:12;;;;;;;12.95;3.75;;;;;;;;;;5070069;28;20044;-82
2022/05/29 01:25:45;;;;;;;13.77;4.60;;;;;;;;;;5052858;28;20049;-82
2022/05/29 01:28:36;;;;;;;7.13;3.17;;;;;;;;;;5051084;28;20123;-82
2022/05/29 01:31:15;;;;;;;7.78;3.28;;;;;;;;;;5053426;28;20055;-82
2022/05/29 01:33:46;;;;;;;8.80;3.70;;;;;;;;;;5062758;28;20048;-82
2022/05/29 01:36:20;;;;;;;15.07;3.88;;;;;;;;;;5049208;28;20560;-82
2022/05/29 01:38:54;;;;;;;14.13;4.18;;;;;;;;;;5050658;28;20458;-82
2022/05/29 01:41:24;;;;;;;13.32;4.40;;;;;;;;;;5063690;28;20487;-81
2022/05/29 01:43:53;;;;;;;12.52;3.90;;;;;;;;;;5069767;28;20052;-82
2022/05/29 01:46:22;;;;;;;12.70;3.83;;;;;;;;;;5068680;28;20068;-82
2022/05/29 01:48:54;;;;;;;8.43;3.35;;;;;;;;;;5071193;28;20040;-82
2022/05/29 01:51:22;;;;;;;11.07;3.60;;;;;;;;;;5070888;28;20052;-82
2022/05/29 01:53:52;;;;;;;9.90;3.33;;;;;;;;;;5069398;28;20048;-82
2022/05/29 01:56:21;;;;;;;10.20;3.10;;;;;;;;;;5047775;28;20052;-82
2022/05/29 01:58:53;;;;;;;9.18;3.50;;;;;;;;;;5049994;28;20056;-82
2022/05/29 02:01:20;;;;;;;7.13;2.67;;;;;;;;;;5068772;28;20425;-82
2022/05/29 02:03:50;;;;;;;8.80;2.80;;;;;;;;;;5070796;28;20066;-82
2022/05/29 02:06:24;;;;;;;15.77;3.13;;;;;;;;;;5049724;28;20052;-82
2022/05/29 02:08:53;;;;;;;8.50;2.83;;;;;;;;;;5050624;28;20123;-82
2022/05/29 02:11:27;;;;;;;8.05;2.88;;;;;;;;;;5050695;28;20116;-82
2022/05/29 02:14:02;;;;;;;9.18;2.83;;;;;;;;;;5050039;28;20064;-81
2022/05/29 02:16:43;;;;;;;9.13;2.80;;;;;;;;;;5049461;28;20053;-81
2022/05/29 02:19:12;;;;;;;12.80;3.13;;;;;;;;;;5050457;28;20072;-81
2022/05/29 02:21:58;;;;;;;8.35;2.95;;;;;;;;;;5050687;28;20048;-82
2022/05/29 02:24:29;;;;;;;8.23;3.10;;;;;;;;;;5043927;28;20065;-82
2022/05/29 02:26:59;;;;;;;8.23;2.83;;;;;;;;;;5050083;28;20199;-81
2022/05/29 02:29:25;;;;;;;6.60;2.95;;;;;;;;;;5057146;28;20052;-81
2022/05/29 02:31:57;;;;;;;6.68;2.78;;;;;;;;;;5070187;28;20477;-82
2022/05/29 02:34:23;;;;;;;9.05;3.53;;;;;;;;;;5051118;28;20076;-81
2022/05/29 02:36:53;;;;;;;14.10;3.65;;;;;;;;;;5050192;28;20073;-81
2022/05/29 02:39:22;;;;;;;11.77;3.45;;;;;;;;;;5050094;28;20084;-82
2022/05/29 02:41:52;;;;;;;9.23;3.78;;;;;;;;;;5050166;28;20048;-82
2022/05/29 02:44:18;;;;;;;11.85;3.80;;;;;;;;;;5055073;28;20040;-82
2022/05/29 02:46:57;;;;;;;13.00;4.32;;;;;;;;;;5050421;28;20124;-82
2022/05/29 02:49:31;;;;;;;10.30;3.85;;;;;;;;;;5048656;28;20456;-82
2022/05/29 02:52:00;;;;;;;13.85;4.13;;;;;;;;;;5048305;28;20139;-82
2022/05/29 02:54:28;;;;;;;13.40;3.70;;;;;;;;;;5049005;28;20049;-82
2022/05/29 02:56:54;;;;;;;9.13;3.13;;;;;;;;;;5049851;28;20051;-82
2022/05/29 02:59:22;;;;;;;7.15;2.60;;;;;;;;;;5059918;28;20088;-82
2022/05/29 03:01:55;;;;;;;8.88;3.15;;;;;;;;;;5069929;28;20053;-82
2022/05/29 03:04:33;;;;;;;8.93;3.00;;;;;;;;;;5065829;28;20547;-82
2022/05/29 03:07:02;;;;;;;8.90;3.20;;;;;;;;;;5049361;28;20084;-82
2022/05/29 03:09:47;;;;;;;7.15;3.35;;;;;;;;;;5049850;28;20124;-82
2022/05/29 03:12:21;;;;;;;11.02;3.40;;;;;;;;;;5049601;28;20498;-82
2022/05/29 03:14:54;;;;;;;9.43;2.92;;;;;;;;;;5045082;28;20045;-82
2022/05/29 03:17:32;;;;;;;9.40;3.00;;;;;;;;;;5068527;28;20048;-82
2022/05/29 03:20:07;;;;;;;11.02;3.05;;;;;;;;;;5068288;28;20052;-82
2022/05/29 03:22:39;;;;;;;9.15;2.78;;;;;;;;;;5068056;28;20048;-82
2022/05/29 03:25:19;;;;;;;9.77;3.03;;;;;;;;;;5060817;28;20497;-82
2022/05/29 03:27:46;;;;;;;9.50;3.20;;;;;;;;;;5048454;28;20135;-82
2022/05/29 03:30:18;;;;;;;10.25;3.47;;;;;;;;;;5066324;28;20190;-82
2022/05/29 03:32:44;;;;;;;9.15;3.20;;;;;;;;;;5069802;28;20049;-83
2022/05/29 03:35:16;;;;;;;10.95;3.35;;;;;;;;;;5059799;28;20041;-82
2022/05/29 03:37:42;;;;;;;11.40;3.58;;;;;;;;;;5049522;28;20049;-82
2022/05/29 03:40:09;;;;;;;9.43;2.70;;;;;;;;;;5049207;28;20132;-82
2022/05/29 03:42:35;;;;;;;7.90;2.63;;;;;;;;;;5048197;28;20041;-83
2022/05/29 03:45:01;;;;;;;8.02;2.63;;;;;;;;;;5059087;28;20045;-82
2022/05/29 03:47:27;;;;;;;8.10;2.92;;;;;;;;;;5048530;28;20053;-82
2022/05/29 03:49:53;;;;;;;9.65;2.60;;;;;;;;;;5048599;28;20057;-82
2022/05/29 03:52:19;;;;;;;6.72;2.50;;;;;;;;;;5052071;28;20091;-82
2022/05/29 03:54:45;;;;;;;9.98;3.00;;;;;;;;;;5034569;28;20086;-82
2022/05/29 03:57:11;;;;;;;7.95;2.60;;;;;;;;;;5052894;28;20129;-82
2022/05/29 03:59:37;;;;;;;13.05;3.35;;;;;;;;;;5052175;28;20521;-83
2022/05/29 04:02:03;;;;;;;8.10;3.00;;;;;;;;;;5052808;28;20104;-82
2022/05/29 04:04:29;;;;;;;6.68;2.92;;;;;;;;;;5050871;28;20103;-83
2022/05/29 04:06:55;;;;;;;7.75;3.10;;;;;;;;;;5063759;28;20045;-82
2022/05/29 04:12:07;;;;;;;10.73;3.20;;;;;;;;;;5065059;28;20053;-82
2022/05/29 04:14:39;;;;;;;11.90;3.60;;;;;;;;;;5069354;28;20048;-82
2022/05/29 04:17:05;;;;;;;13.15;3.92;;;;;;;;;;5052696;28;20052;-82
2022/05/29 04:19:31;;;;;;;11.40;3.58;;;;;;;;;;5051067;28;20049;-82
2022/05/29 04:21:57;;;;;;;12.90;3.70;;;;;;;;;;5062024;28;20090;-82
2022/05/29 04:24:24;;;;;;;12.75;4.20;;;;;;;;;;5066533;28;20559;-83
2022/05/29 04:26:50;;;;;;;12.38;3.33;;;;;;;;;;5052641;28;20037;-82
2022/05/29 04:29:17;;;;;;;14.63;3.38;;;;;;;;;;5051043;28;20539;-82
2022/05/29 04:32:59;;;;;;;14.18;3.33;;;;;;;;;;5053726;28;20137;-83
2022/05/29 04:34:29;;;;;;;8.00;2.90;;;;;;;;;;5054740;28;20049;-82
2022/05/29 04:36:55;;;;;;;9.02;3.17;;;;;;;;;;5061577;28;20045;-82
2022/05/29 04:39:21;;;;;;;10.63;3.08;;;;;;;;;;5071081;28;20055;-82
2022/05/29 04:41:47;;;;;;;8.50;2.85;;;;;;;;;;5050552;28;20048;-82
2022/05/29 04:44:13;;;;;;;8.20;2.70;;;;;;;;;;5051814;28;20370;-82
2022/05/29 04:46:39;;;;;;;13.73;3.20;;;;;;;;;;5051419;28;20414;-82
2022/05/29 04:49:05;;;;;;;10.63;3.88;;;;;;;;;;5033576;28;20449;-82
2022/05/29 04:51:31;;;;;;;10.27;3.15;;;;;;;;;;5062006;28;20520;-82
2022/05/29 04:53:57;;;;;;;10.25;3.83;;;;;;;;;;5072041;28;20040;-82
2022/05/29 04:56:23;;;;;;;12.23;3.00;;;;;;;;;;5054014;28;20140;-82
2022/05/29 04:58:49;;;;;;;8.85;2.78;;;;;;;;;;5034260;28;20045;-82
2022/05/29 05:01:15;;;;;;;12.38;2.97;;;;;;;;;;5057355;28;20033;-82
2022/05/29 05:03:41;;;;;;;9.77;3.05;;;;;;;;;;5050392;28;20413;-82
2022/05/29 05:06:07;;;;;;;11.50;3.08;;;;;;;;;;5058370;28;20078;-82
2022/05/29 05:08:33;;;;;;;9.93;2.70;;;;;;;;;;5071841;28;20101;-83
2022/05/29 05:10:59;;;;;;;9.75;3.33;;;;;;;;;;5057912;28;20136;-83
2022/05/29 05:13:25;;;;;;;10.38;3.13;;;;;;;;;;5051528;28;20048;-82
2022/05/29 05:15:51;;;;;;;8.02;2.75;;;;;;;;;;5049646;28;20453;-82
2022/05/29 05:18:17;;;;;;;10.75;3.00;;;;;;;;;;5050951;28;20375;-82
2022/05/29 05:20:43;;;;;;;10.18;3.38;;;;;;;;;;5059354;28;20060;-82
2022/05/29 05:23:09;;;;;;;12.15;3.20;;;;;;;;;;5070418;28;20127;-82
2022/05/29 05:25:37;;;;;;;10.52;3.15;;;;;;;;;;5062152;28;20490;-82
2022/05/29 05:28:03;;;;;;;20.38;3.80;;;;;;;;;;5051240;28;20072;-82
2022/05/29 05:30:29;;;;;;;9.70;3.30;;;;;;;;;;5058478;28;20078;-82
2022/05/29 05:32:55;;;;;;;15.65;3.83;;;;;;;;;;5052515;28;20060;-82
2022/05/29 05:35:21;;;;;;;15.40;3.67;;;;;;;;;;5050089;28;20079;-82
2022/05/29 05:37:49;;;;;;;14.32;3.90;;;;;;;;;;5051337;28;20553;-83
2022/05/29 05:40:16;;;;;;;7.97;2.90;;;;;;;;;;5051186;28;20037;-82
2022/05/29 05:42:42;;;;;;;10.02;3.22;;;;;;;;;;5050051;28;20496;-82
2022/05/29 05:45:09;;;;;;;12.90;3.45;;;;;;;;;;5049812;28;20049;-82
2022/05/29 05:47:35;;;;;;;10.73;3.42;;;;;;;;;;5049321;28;20068;-83
2022/05/29 05:50:01;;;;;;;8.73;2.75;;;;;;;;;;5055561;28;20106;-83
2022/05/29 05:52:27;;;;;;;10.27;3.33;;;;;;;;;;5069659;28;20523;-83
2022/05/29 05:54:53;;;;;;;14.93;3.50;;;;;;;;;;5067876;28;20080;-82
2022/05/29 05:57:19;;;;;;;11.23;3.38;;;;;;;;;;5048690;28;20197;-82
2022/05/29 05:59:46;;;;;;;8.05;2.90;;;;;;;;;;5049935;28;20504;-83
2022/05/29 06:02:12;;;;;;;12.00;3.28;;;;;;;;;;5048167;28;20083;-82
2022/05/29 06:04:39;;;;;;;14.80;3.38;;;;;;;;;;5050756;28;20048;-82
2022/05/29 06:07:05;;;;;;;11.65;3.63;;;;;;;;;;5049413;28;20120;-82
2022/05/29 06:09:31;;;;;;;10.77;3.53;;;;;;;;;;5051343;28;20045;-82
2022/05/29 06:11:57;;;;;;;11.90;3.10;;;;;;;;;;5066448;28;20064;-82
2022/05/29 06:14:23;;;;;;;11.48;2.97;;;;;;;;;;5068432;28;20055;-82
2022/05/29 06:16:49;;;;;;;10.57;2.80;;;;;;;;;;5048234;28;20036;-82
2022/05/29 06:19:15;;;;;;;9.70;3.35;;;;;;;;;;5067132;28;20381;-82
2022/05/29 06:21:41;;;;;;;13.07;2.67;;;;;;;;;;5052776;28;20186;-84
2022/05/29 06:24:07;;;;;;;9.68;3.20;;;;;;;;;;5049962;28;20561;-83
2022/05/29 06:26:34;;;;;;;19.00;3.42;;;;;;;;;;5045154;28;20393;-83
2022/05/29 06:29:00;;;;;;;12.73;3.40;;;;;;;;;;5052688;28;20053;-83
2022/05/29 06:31:26;;;;;;;9.35;2.80;;;;;;;;;;5061677;28;20029;-83
2022/05/29 06:33:52;;;;;;;10.02;2.92;;;;;;;;;;5059338;28;20090;-83
2022/05/29 06:36:20;;;;;;;8.23;2.70;;;;;;;;;;5052606;28;20166;-82
2022/05/29 06:38:47;;;;;;;11.98;2.75;;;;;;;;;;5049288;28;20064;-83
2022/05/29 06:41:14;;;;;;;8.18;2.83;;;;;;;;;;5048897;28;20053;-82
2022/05/29 06:43:40;;;;;;;8.23;2.58;;;;;;;;;;5048308;28;20124;-83
2022/05/29 06:46:08;;;;;;;5.30;2.38;;;;;;;;;;5047315;28;20044;-83
2022/05/29 06:48:35;;;;;;;8.73;2.53;;;;;;;;;;5053320;28;20543;-82
2022/05/29 06:51:08;;;;;;;9.95;2.85;;;;;;;;;;5050534;28;20140;-82
2022/05/29 06:53:34;;;;;;;8.65;2.63;;;;;;;;;;5048850;28;20045;-82
2022/05/29 06:56:01;;;;;;;11.18;2.70;;;;;;;;;;5056397;28;20132;-83
2022/05/29 06:58:27;;;;;;;15.88;3.40;;;;;;;;;;5028544;28;20045;-83
2022/05/29 07:09:07;;;;;;;8.80;2.90;;;;;;;;;;5055261;28;20482;-85
2022/05/29 07:11:37;;;;;;;8.48;2.28;;;;;;;;;;5060408;28;20060;-85
2022/05/29 07:14:05;;;;;;;6.80;2.30;;;;;;;;;;5067927;28;20044;-85
2022/05/29 07:16:34;;;;;;;7.20;2.50;;;;;;;;;;5069769;28;20154;-85
2022/05/29 07:19:01;;;;;;;6.78;1.95;;;;;;;;;;5054696;28;20049;-85
2022/05/29 07:21:33;;;;;;;4.47;1.92;;;;;;;;;;5048581;28;20489;-85
2022/05/29 07:23:59;;;;;;;7.35;2.50;;;;;;;;;;5050522;28;20052;-85
2022/05/29 07:26:25;;;;;;;7.45;2.78;;;;;;;;;;5055750;28;20052;-84
2022/05/29 07:28:52;;;;;;;6.97;2.30;;;;;;;;;;5052007;28;20284;-84
2022/05/29 07:31:18;;;;;;;8.00;2.38;;;;;;;;;;5057009;28;20053;-85
2022/05/29 07:33:44;;;;;;;8.05;2.65;;;;;;;;;;5070449;28;20511;-85
2022/05/29 07:36:11;;;;;;;9.50;2.40;;;;;;;;;;5072154;28;20135;-85
2022/05/29 07:38:38;;;;;;;6.97;2.80;;;;;;;;;;5063333;28;20330;-85
2022/05/29 07:43:18;;;;;;;7.47;2.50;;;;;;;;;;5053339;28;20116;-84
2022/05/29 07:43:52;;;;;;;9.77;2.40;;;;;;;;;;5053104;28;20182;-85
2022/05/29 07:46:18;;;;;;;5.72;2.38;;;;;;;;;;5052280;28;20053;-84
2022/05/29 07:48:44;;;;;;;5.55;1.98;;;;;;;;;;5052947;28;20033;-84
2022/05/29 07:51:10;;;;;;;5.93;1.90;;;;;;;;;;5060666;28;20141;-84
2022/05/29 07:53:37;;;;;;;6.55;1.98;;;;;;;;;;5067147;28;20075;-86
2022/05/29 07:56:04;;;;;;;7.95;3.05;;;;;;;;;;5062274;28;20063;-86
2022/05/29 07:58:30;;;;;;;10.75;2.55;;;;;;;;;;5050922;28;20095;-86
2022/05/29 08:00:56;;;;;;;6.32;2.22;;;;;;;;;;5051553;28;20052;-87
2022/05/29 08:03:23;;;;;;;6.35;2.00;;;;;;;;;;5052195;28;20391;-87
2022/05/29 08:05:49;;;;;;;5.30;1.80;;;;;;;;;;5053096;28;20048;-87
2022/05/29 08:08:15;;;;;;;7.15;2.40;;;;;;;;;;5051654;28;20059;-86
2022/05/29 08:10:43;;;;;;;5.88;2.10;;;;;;;;;;5070162;28;20408;-86
2022/05/29 08:13:09;;;;;;;6.28;2.10;;;;;;;;;;5071166;28;20041;-86
2022/05/29 08:15:36;;;;;;;5.75;2.40;;;;;;;;;;5072864;28;20123;-86
2022/05/29 08:18:02;;;;;;;4.82;1.83;;;;;;;;;;5067255;28;20050;-86
2022/05/29 08:20:29;;;;;;;5.22;1.83;;;;;;;;;;5052473;28;20043;-87
2022/05/29 08:22:55;;;;;;;6.35;2.03;;;;;;;;;;5057139;28;20032;-86
2022/05/29 08:30:53;;;;;;;7.70;2.40;;;;;;;;;;5050421;28;20490;-83
2022/05/29 08:33:27;;;;;;;12.40;2.92;;;;;;;;;;5052850;28;20049;-84
2022/05/29 08:35:56;;;;;;;8.40;2.35;;;;;;;;;;5051407;28;20052;-85
2022/05/29 08:38:22;;;;;;;6.50;2.20;;;;;;;;;;5050605;28;20405;-85
2022/05/29 08:41:02;;;;;;;5.70;2.38;;;;;;;;;;5050776;28;20049;-83
2022/05/29 08:44:01;;;;;;;7.30;2.35;;;;;;;;;;5051210;28;20056;-85
2022/05/29 08:46:31;;;;;;;8.38;2.28;;;;;;;;;;5010054;28;20478;-84
2022/05/29 08:48:57;;;;;;;6.50;2.30;;;;;;;;;;4996286;28;20573;-84
2022/05/29 08:51:58;;;;;;;5.47;2.13;;;;;;;;;;5010160;28;20105;-83
2022/05/29 08:54:43;;;;;;;6.03;2.00;;;;;;;;;;4951257;29;20385;-84
2022/05/29 08:57:21;;;;;;;6.97;2.28;;;;;;;;;;4950608;29;20055;-88
2022/05/29 09:00:00;;;;;;;6.07;2.33;;;;;;;;;;4951051;29;20051;-84
2022/05/29 09:02:45;;;;;;;10.07;2.53;;;;;;;;;;4955145;28;20562;-84
2022/05/29 09:05:20;;;;;;;10.40;2.85;;;;;;;;;;4936403;29;20079;-84
2022/05/29 09:07:49;;;;;;;8.40;2.45;;;;;;;;;;4960625;28;20042;-83
2022/05/29 09:10:21;;;;;;;8.13;2.65;;;;;;;;;;4950480;29;20488;-83
2022/05/29 09:12:50;;;;;;;10.95;3.22;;;;;;;;;;4936120;29;20050;-84
2022/05/29 09:15:36;;;;;;;8.05;2.70;;;;;;;;;;4933272;29;20059;-82
2022/05/29 09:18:20;;;;;;;9.88;2.80;;;;;;;;;;4934650;29;20400;-83
2022/05/29 09:20:54;;;;;;;8.63;2.47;;;;;;;;;;4933115;28;20058;-83
2022/05/29 09:23:25;;;;;;;7.47;2.78;;;;;;;;;;5023043;28;20072;-84
2022/05/29 09:25:52;;;;;;;9.60;2.40;;;;;;;;;;5000260;28;20453;-82
2022/05/29 09:28:27;;;;;;;7.15;2.60;;;;;;;;;;5012447;28;20057;-82
2022/05/29 09:30:54;;;;;;;8.77;2.60;;;;;;;;;;5049211;28;20052;-83
2022/05/29 09:33:25;;;;;;;4.88;2.20;;;;;;;;;;5048185;28;20419;-82
2022/05/29 09:36:02;;;;;;;9.07;2.30;;;;;;;;;;5041052;28;20064;-84
2022/05/29 09:38:31;;;;;;;6.22;1.98;;;;;;;;;;5050756;28;20512;-83
2022/05/29 09:41:02;;;;;;;9.85;2.20;;;;;;;;;;5059497;28;20105;-83
2022/05/29 09:43:29;;;;;;;4.85;2.03;;;;;;;;;;5069962;28;20048;-83
2022/05/29 09:45:55;;;;;;;6.72;2.05;;;;;;;;;;5070049;28;20059;-83
2022/05/29 09:51:19;;;;;;;8.52;2.40;;;;;;;;;;5037588;28;20052;-83
2022/05/29 09:53:47;;;;;;;9.13;2.20;;;;;;;;;;5041947;28;20045;-83
2022/05/29 09:56:14;;;;;;;8.05;2.63;;;;;;;;;;5050564;28;20055;-83
2022/05/29 09:58:48;;;;;;;9.70;2.60;;;;;;;;;;5055246;28;20512;-83
2022/05/29 10:01:26;;;;;;;9.73;2.40;;;;;;;;;;5042266;28;20048;-89
2022/05/29 10:03:53;;;;;;;5.28;2.63;;;;;;;;;;5053728;28;20114;-84
2022/05/29 10:06:23;;;;;;;10.40;2.90;;;;;;;;;;5047091;28;20136;-92
2022/05/29 10:08:50;;;;;;;12.57;2.85;;;;;;;;;;5035880;28;20059;-83
2022/05/29 10:11:23;;;;;;;7.72;2.38;;;;;;;;;;5056601;28;20040;-84
2022/05/29 10:13:50;;;;;;;8.15;2.95;;;;;;;;;;5049993;28;20045;-84
2022/05/29 10:16:31;;;;;;;6.43;2.60;;;;;;;;;;5063141;28;20101;-84
2022/05/29 10:18:57;;;;;;;9.70;2.42;;;;;;;;;;5053582;28;20049;-83
2022/05/29 10:21:24;;;;;;;8.82;2.80;;;;;;;;;;5059516;28;20564;-84
2022/05/29 10:23:52;;;;;;;6.95;2.25;;;;;;;;;;5069337;28;20131;-84
2022/05/29 10:26:35;;;;;;;8.80;2.63;;;;;;;;;;5066024;28;20045;-83
2022/05/29 10:29:02;;;;;;;9.25;2.60;;;;;;;;;;5060197;28;20098;-84
2022/05/29 10:31:32;;;;;;;7.57;2.58;;;;;;;;;;5048693;28;20075;-84
2022/05/29 10:34:04;;;;;;;7.57;2.45;;;;;;;;;;5048551;28;20445;-84
2022/05/29 10:36:30;;;;;;;8.27;2.63;;;;;;;;;;5060425;28;20048;-83
2022/05/29 10:39:08;;;;;;;8.25;2.67;;;;;;;;;;5059072;28;20045;-83
2022/05/29 10:41:35;;;;;;;7.53;2.60;;;;;;;;;;5054744;28;20386;-84
2022/05/29 10:44:02;;;;;;;12.32;2.70;;;;;;;;;;5057117;28;20036;-84
2022/05/29 10:46:39;;;;;;;5.65;2.42;;;;;;;;;;5064204;28;20145;-84
2022/05/29 10:49:23;;;;;;;8.98;2.70;;;;;;;;;;5062304;28;20040;-83
2022/05/29 10:51:55;;;;;;;13.07;3.33;;;;;;;;;;5029793;28;20049;-88
2022/05/29 10:54:25;;;;;;;15.02;3.33;;;;;;;;;;5036851;28;20120;-86
2022/05/29 10:57:10;;;;;;;11.52;2.83;;;;;;;;;;5050235;28;20045;-83
2022/05/29 10:59:39;;;;;;;9.90;2.97;;;;;;;;;;5047441;28;20239;-89
2022/05/29 11:05:11;;;;;;;7.57;2.83;;;;;;;;;;5055784;28;20053;-83
2022/05/29 11:07:40;;;;;;;10.10;2.70;;;;;;;;;;5070029;28;20048;-86
2022/05/29 11:10:20;;;;;;;7.78;2.97;;;;;;;;;;5061467;28;21053;-84
2022/05/29 11:13:05;;;;;;;11.48;2.90;;;;;;;;;;5069951;28;20056;-83
2022/05/29 11:15:55;;;;;;;11.48;3.30;;;;;;;;;;5068710;28;20080;-88
2022/05/29 11:18:24;;;;;;;10.88;3.00;;;;;;;;;;5050971;28;20084;-83
2022/05/29 11:20:56;;;;;;;7.25;2.35;;;;;;;;;;5061954;28;20055;-83
2022/05/29 11:23:37;;;;;;;9.25;2.45;;;;;;;;;;5045553;28;20091;-83
2022/05/29 11:26:19;;;;;;;9.27;2.63;;;;;;;;;;5048513;28;20049;-83
2022/05/29 11:28:56;;;;;;;11.52;3.15;;;;;;;;;;5048349;28;20405;-83
2022/05/29 11:31:22;;;;;;;9.15;2.97;;;;;;;;;;5048668;28;20394;-84
2022/05/29 11:34:00;;;;;;;7.25;2.40;;;;;;;;;;5050014;28;20556;-83
2022/05/29 11:36:35;;;;;;;9.30;2.42;;;;;;;;;;5065117;28;20049;-83
2022/05/29 11:39:07;;;;;;;8.55;2.40;;;;;;;;;;5059295;28;20049;-83
2022/05/29 11:41:36;;;;;;;10.68;3.00;;;;;;;;;;5048236;28;20128;-84
2022/05/29 11:44:05;;;;;;;13.02;2.97;;;;;;;;;;5049103;28;20055;-84
2022/05/29 11:52:18;;;;;;;8.05;2.90;;;;;;;;;;5057769;28;20880;-83
2022/05/29 11:54:47;;;;;;;7.50;2.70;;;;;;;;;;5048181;28;20053;-83
2022/05/29 11:57:17;;;;;;;7.57;2.33;;;;;;;;;;5047698;28;20037;-83
2022/05/29 11:59:50;;;;;;;9.93;2.50;;;;;;;;;;5052896;28;20084;-84
2022/05/29 12:02:26;;;;;;;9.00;2.90;;;;;;;;;;5054986;28;20401;-84
2022/05/29 12:04:56;;;;;;;9.45;2.55;;;;;;;;;;5047687;28;20040;-86
2022/05/29 12:07:28;;;;;;;8.13;2.25;;;;;;;;;;5055019;28;20140;-84
2022/05/29 12:09:59;;;;;;;8.15;2.33;;;;;;;;;;5046123;28;20493;-83
2022/05/29 12:12:34;;;;;;;8.85;2.22;;;;;;;;;;5052586;28;20119;-83
2022/05/29 12:15:02;;;;;;;7.55;2.25;;;;;;;;;;5050222;28;20307;-83
2022/05/29 12:17:31;;;;;;;8.77;2.22;;;;;;;;;;5051123;28;20048;-83
2022/05/29 12:19:57;;;;;;;8.82;2.35;;;;;;;;;;5052749;28;20044;-83
2022/05/29 12:22:26;;;;;;;6.50;2.20;;;;;;;;;;5065989;28;20041;-83
2022/05/29 12:24:52;;;;;;;5.72;1.92;;;;;;;;;;5052476;28;20037;-83
2022/05/29 12:27:20;;;;;;;11.85;2.92;;;;;;;;;;5052515;28;20052;-83
2022/05/29 12:29:54;;;;;;;8.70;2.58;;;;;;;;;;5052696;28;20152;-83
2022/05/29 12:32:22;;;;;;;6.35;2.42;;;;;;;;;;5049657;28;20056;-89
2022/05/29 12:34:51;;;;;;;10.02;2.58;;;;;;;;;;5049925;28;20045;-83
2022/05/29 12:37:20;;;;;;;7.75;2.63;;;;;;;;;;5048048;28;20463;-83
2022/05/29 12:39:46;;;;;;;7.68;2.35;;;;;;;;;;5059783;28;20040;-90
2022/05/29 12:42:22;;;;;;;14.60;3.05;;;;;;;;;;5051000;28;20417;-83
2022/05/29 12:45:06;;;;;;;10.97;2.60;;;;;;;;;;5050177;28;20374;-83
2022/05/29 12:47:38;;;;;;;10.88;2.78;;;;;;;;;;5049764;28;20994;-83
2022/05/29 12:50:07;;;;;;;8.85;2.63;;;;;;;;;;5051939;28;20401;-83
2022/05/29 12:52:57;;;;;;;12.55;3.17;;;;;;;;;;5055985;28;20106;-83
2022/05/29 12:55:33;;;;;;;9.75;2.80;;;;;;;;;;5071085;28;20041;-83
2022/05/29 12:58:18;;;;;;;8.95;2.90;;;;;;;;;;5064220;28;20065;-83
2022/05/29 13:00:53;;;;;;;7.15;2.38;;;;;;;;;;5050725;28;20071;-83
2022/05/29 13:03:37;;;;;;;7.93;2.30;;;;;;;;;;5051382;28;20128;-83
2022/05/29 13:06:09;;;;;;;8.52;2.67;;;;;;;;;;5046040;28;20048;-83
2022/05/29 13:08:44;;;;;;;7.25;2.60;;;;;;;;;;5030670;28;20099;-83
2022/05/29 13:11:11;;;;;;;7.85;2.47;;;;;;;;;;5037777;28;20090;-83
2022/05/29 13:13:43;;;;;;;6.45;2.33;;;;;;;;;;5050580;28;20116;-83
2022/05/29 13:16:27;;;;;;;8.70;2.92;;;;;;;;;;5050309;28;20102;-83
2022/05/29 13:19:24;;;;;;;9.32;2.55;;;;;;;;;;5039783;28;20056;-83
2022/05/29 13:21:55;;;;;;;6.88;2.80;;;;;;;;;;5039304;28;20166;-83
2022/05/29 13:24:22;;;;;;;10.65;2.63;;;;;;;;;;5031425;28;20160;-83
2022/05/29 13:27:07;;;;;;;9.38;2.70;;;;;;;;;;5031746;28;20073;-83
2022/05/29 13:29:40;;;;;;;8.93;2.55;;;;;;;;;;5035477;28;20506;-83
2022/05/29 13:32:15;;;;;;;7.70;2.60;;;;;;;;;;5037027;28;20478;-83
2022/05/29 13:34:49;;;;;;;8.53;2.80;;;;;;;;;;5050020;28;20375;-83
2022/05/29 13:37:22;;;;;;;11.65;2.63;;;;;;;;;;5040572;28;21933;-83
2022/05/29 13:39:57;;;;;;;10.13;3.15;;;;;;;;;;5028269;28;20038;-83
2022/05/29 13:42:26;;;;;;;7.50;2.70;;;;;;;;;;5037301;28;20057;-92
2022/05/29 13:44:52;;;;;;;10.55;2.80;;;;;;;;;;5035320;28;20172;-83
2022/05/29 13:47:22;;;;;;;9.25;2.65;;;;;;;;;;5026555;28;20164;-83
2022/05/29 13:49:57;;;;;;;7.38;2.67;;;;;;;;;;5028717;28;20297;-84
2022/05/29 13:52:36;;;;;;;11.73;2.80;;;;;;;;;;5048974;28;20041;-84
2022/05/29 13:55:20;;;;;;;7.40;2.70;;;;;;;;;;5046056;28;20063;-84
2022/05/29 14:06:30;;;;;;;9.20;2.80;;;;;;;;;;5051437;28;20048;-82
2022/05/29 14:08:57;;;;;;;9.30;2.80;;;;;;;;;;5061410;28;20037;-83
2022/05/29 14:11:42;;;;;;;9.68;3.00;;;;;;;;;;5046715;28;20047;-82
2022/05/29 14:14:27;;;;;;;10.32;2.78;;;;;;;;;;5046055;28;20053;-82
2022/05/29 14:16:54;;;;;;;9.40;2.47;;;;;;;;;;5043401;28;20041;-82
2022/05/29 14:19:39;;;;;;;8.20;2.55;;;;;;;;;;5030698;28;20045;-84
2022/05/29 14:22:10;;;;;;;11.40;3.15;;;;;;;;;;5045867;28;20505;-82
2022/05/29 14:24:52;;;;;;;9.20;2.60;;;;;;;;;;5038423;28;20122;-95
2022/05/29 14:27:37;;;;;;;8.02;2.83;;;;;;;;;;5055445;28;20063;-96
2022/05/29 14:30:06;;;;;;;8.93;3.00;;;;;;;;;;5048585;28;20055;-96
2022/05/29 14:32:32;;;;;;;12.43;2.88;;;;;;;;;;5050127;28;20047;-86
2022/05/29 14:35:11;;;;;;;11.48;3.20;;;;;;;;;;5038229;28;20049;-86
2022/05/29 14:37:52;;;;;;;11.15;2.92;;;;;;;;;;5033251;28;20088;-86
2022/05/29 14:40:25;;;;;;;13.02;3.38;;;;;;;;;;5029134;28;20049;-86
2022/05/29 14:42:54;;;;;;;9.80;3.10;;;;;;;;;;5034159;28;20509;-86
2022/05/29 14:45:26;;;;;;;10.98;3.35;;;;;;;;;;5033918;28;20095;-86
2022/05/29 14:48:12;;;;;;;10.18;3.22;;;;;;;;;;5039852;28;20085;-86
2022/05/29 14:50:56;;;;;;;12.07;3.28;;;;;;;;;;5045811;28;20064;-85
2022/05/29 14:53:31;;;;;;;10.55;3.03;;;;;;;;;;5046678;28;20048;-86
2022/05/29 14:56:00;;;;;;;6.07;2.60;;;;;;;;;;5041593;28;20048;-85
2022/05/29 14:58:31;;;;;;;6.97;2.80;;;;;;;;;;5043417;28;20041;-84
2022/05/29 15:00:58;;;;;;;10.90;3.00;;;;;;;;;;5038247;28;20049;-85
2022/05/29 15:03:29;;;;;;;9.73;2.75;;;;;;;;;;5034937;28;20049;-84
2022/05/29 15:05:56;;;;;;;10.05;3.00;;;;;;;;;;5069275;28;20049;-85
2022/05/29 15:11:11;;;;;;;10.43;3.13;;;;;;;;;;5025513;28;20047;-85
2022/05/29 15:14:01;;;;;;;10.38;3.47;;;;;;;;;;5042077;28;20065;-84
2022/05/29 15:16:27;;;;;;;11.02;3.28;;;;;;;;;;5033378;28;20485;-85
2022/05/29 15:18:53;;;;;;;14.25;3.03;;;;;;;;;;5032729;28;20119;-85
2022/05/29 15:24:12;;;;;;;12.82;3.33;;;;;;;;;;5034729;28;20085;-85
2022/05/29 15:26:40;;;;;;;12.93;3.00;;;;;;;;;;5033837;28;20050;-84
2022/05/29 15:29:11;;;;;;;9.73;3.55;;;;;;;;;;5044943;28;20072;-84
2022/05/29 15:31:38;;;;;;;17.17;4.00;;;;;;;;;;5038336;28;20053;-84
2022/05/29 15:34:11;;;;;;;8.57;3.20;;;;;;;;;;5028880;28;20041;-84
2022/05/29 15:36:47;;;;;;;13.45;2.95;;;;;;;;;;5030711;28;20492;-84
2022/05/29 15:39:35;;;;;;;12.23;3.92;;;;;;;;;;5040993;28;20049;-84
2022/05/29 15:42:04;;;;;;;12.13;3.90;;;;;;;;;;5037182;28;20128;-86